createdAt,value
2017-06-08T00:01:16.615Z,18.00
2017-06-08T00:03:43.603Z,12.20
2017-06-08T00:06:10.616Z,17.67
2017-06-08T00:08:37.611Z,20.67
2017-06-08T00:11:04.660Z,15.50
2017-06-08T00:13:31.651Z,15.17
2017-06-08T00:15:58.645Z,14.17
2017-06-08T00:18:25.663Z,12.70
2017-06-08T00:20:52.656Z,15.40
2017-06-08T00:23:20.456Z,17.10
2017-06-08T00:25:47.464Z,13.47
2017-06-08T00:28:15.283Z,14.40
2017-06-08T00:30:42.276Z,17.00
2017-06-08T00:33:10.027Z,13.03
2017-06-08T00:35:37.051Z,15.47
2017-06-08T00:38:04.090Z,14.93
2017-06-08T00:40:31.119Z,20.93
2017-06-08T00:42:58.106Z,11.63
2017-06-08T00:45:25.135Z,7.53
2017-06-08T00:47:52.138Z,17.47
2017-06-08T00:50:19.191Z,10.50
2017-06-08T00:52:46.185Z,17.63
2017-06-08T00:55:13.211Z,9.33
2017-06-08T00:57:40.399Z,11.97
2017-06-08T01:00:07.389Z,13.90
2017-06-08T01:02:34.392Z,10.03
2017-06-08T01:05:01.407Z,15.03
2017-06-08T01:07:28.395Z,15.63
2017-06-08T01:09:55.425Z,16.63
2017-06-08T01:12:22.418Z,13.57
2017-06-08T01:14:49.427Z,12.90
2017-06-08T01:17:17.183Z,11.97
2017-06-08T01:19:44.199Z,14.10
2017-06-08T01:22:11.188Z,17.83
2017-06-08T01:24:38.995Z,15.50
2017-06-08T01:27:06.009Z,12.90
2017-06-08T01:29:33.007Z,11.33
2017-06-08T01:32:00.043Z,13.03
2017-06-08T01:34:27.067Z,14.43
2017-06-08T01:36:54.087Z,10.87
2017-06-08T01:39:21.878Z,14.53
2017-06-08T01:41:48.873Z,21.53
2017-06-08T01:44:15.903Z,16.17
2017-06-08T01:46:42.927Z,13.50
2017-06-08T01:49:09.948Z,20.90
2017-06-08T01:51:36.979Z,13.70
2017-06-08T01:54:04.786Z,22.30
2017-06-08T01:56:31.820Z,12.83
2017-06-08T01:58:58.809Z,17.00
2017-06-08T02:01:25.877Z,9.57
2017-06-08T02:03:52.878Z,27.77
2017-06-08T02:06:19.907Z,10.40
2017-06-08T02:08:46.936Z,15.37
2017-06-08T02:11:13.977Z,10.03
2017-06-08T02:13:41.745Z,17.17
2017-06-08T02:16:08.747Z,20.10
2017-06-08T02:18:35.783Z,18.97
2017-06-08T02:21:02.779Z,14.50
2017-06-08T02:23:30.589Z,18.33
2017-06-08T02:25:57.603Z,19.43
2017-06-08T02:28:24.587Z,19.70
2017-06-08T02:30:51.600Z,15.00
2017-06-08T02:33:18.587Z,12.53
2017-06-08T02:35:45.596Z,17.80
2017-06-08T02:38:12.590Z,10.93
2017-06-08T02:40:39.613Z,14.33
2017-06-08T02:43:06.611Z,19.67
2017-06-08T02:45:34.421Z,25.40
2017-06-08T02:48:01.448Z,23.77
2017-06-08T02:50:28.435Z,19.47
2017-06-08T02:52:55.463Z,18.67
2017-06-08T02:55:22.452Z,13.70
2017-06-08T02:57:49.450Z,17.43
2017-06-08T03:00:16.476Z,17.80
2017-06-08T03:02:43.479Z,21.03
2017-06-08T03:05:10.496Z,13.07
2017-06-08T03:07:37.491Z,23.20
2017-06-08T03:10:05.300Z,19.00
2017-06-08T03:12:32.284Z,20.73
2017-06-08T03:14:59.267Z,12.37
2017-06-08T03:17:26.283Z,12.00
2017-06-08T03:19:54.047Z,17.83
2017-06-08T03:22:21.978Z,23.40
2017-06-08T03:24:48.966Z,12.40
2017-06-08T03:27:15.959Z,25.10
2017-06-08T03:29:42.984Z,19.73
2017-06-08T03:32:09.995Z,26.40
2017-06-08T03:34:37.777Z,18.27
2017-06-08T03:37:05.536Z,22.17
2017-06-08T03:39:33.460Z,25.33
2017-06-08T03:42:00.449Z,27.30
2017-06-08T03:44:28.207Z,32.60
2017-06-08T03:46:56.015Z,22.87
2017-06-08T03:49:23.002Z,24.73
2017-06-08T03:51:50.039Z,22.33
2017-06-08T03:54:17.027Z,28.40
2017-06-08T03:56:44.039Z,25.93
2017-06-08T03:59:11.052Z,27.27
2017-06-08T04:01:38.036Z,30.23
2017-06-08T04:04:05.060Z,39.70
2017-06-08T04:06:32.048Z,21.80
2017-06-08T04:08:59.833Z,25.33
2017-06-08T04:11:26.848Z,25.17
2017-06-08T04:13:54.823Z,32.63
2017-06-08T04:16:22.583Z,29.57
2017-06-08T04:18:50.338Z,20.07
2017-06-08T04:21:17.352Z,26.23
2017-06-08T04:23:44.340Z,25.77
2017-06-08T04:26:12.119Z,17.33
2017-06-08T04:28:39.879Z,26.53
2017-06-08T04:31:06.900Z,17.53
2017-06-08T04:33:33.897Z,26.67
2017-06-08T04:36:01.108Z,18.13
2017-06-08T04:38:28.855Z,22.57
2017-06-08T04:40:55.843Z,34.07
2017-06-08T04:43:22.847Z,25.13
2017-06-08T04:45:49.889Z,21.70
2017-06-08T04:48:16.894Z,33.70
2017-06-08T04:50:43.887Z,22.33
2017-06-08T04:53:10.927Z,27.60
2017-06-08T04:55:37.919Z,25.90
2017-06-08T04:58:04.936Z,24.10
2017-06-08T05:00:31.924Z,30.73
2017-06-08T05:02:58.951Z,23.57
2017-06-08T05:05:25.940Z,26.93
2017-06-08T05:07:52.931Z,22.60
2017-06-08T05:10:20.716Z,24.07
2017-06-08T05:12:47.699Z,25.33
2017-06-08T05:15:14.719Z,25.73
2017-06-08T05:17:41.735Z,22.00
2017-06-08T05:20:09.527Z,15.33
2017-06-08T05:22:36.516Z,23.93
2017-06-08T05:25:03.531Z,27.43
2017-06-08T05:27:30.523Z,38.93
2017-06-08T05:29:57.559Z,21.07
2017-06-08T05:32:24.539Z,21.23
2017-06-08T05:34:52.365Z,30.77
2017-06-08T05:37:19.355Z,21.20
2017-06-08T05:39:46.343Z,18.37
2017-06-08T05:42:13.369Z,22.13
2017-06-08T05:44:40.356Z,19.00
2017-06-08T05:47:07.373Z,31.77
2017-06-08T05:49:34.368Z,25.20
2017-06-08T05:52:02.157Z,26.87
2017-06-08T05:54:29.152Z,25.30
2017-06-08T05:56:56.169Z,25.90
2017-06-08T05:59:23.151Z,20.17
2017-06-08T06:01:50.165Z,20.17
2017-06-08T06:04:17.155Z,23.00
2017-06-08T06:06:44.192Z,15.27
2017-06-08T06:09:11.197Z,17.90
2017-06-08T06:11:38.191Z,23.37
2017-06-08T06:14:05.204Z,17.17
2017-06-08T06:16:32.196Z,14.10
2017-06-08T06:18:59.996Z,15.60
2017-06-08T06:21:27.003Z,23.20
2017-06-08T06:23:54.751Z,18.70
2017-06-08T06:26:21.767Z,19.57
2017-06-08T06:28:48.753Z,27.97
2017-06-08T06:31:15.803Z,29.87
2017-06-08T06:33:42.844Z,25.73
2017-06-08T06:36:09.823Z,23.55
2017-06-08T06:38:36.836Z,24.97
2017-06-08T06:41:04.803Z,24.17
2017-06-08T06:43:31.820Z,22.40
2017-06-08T06:45:58.816Z,24.13
2017-06-08T06:48:25.828Z,20.00
2017-06-08T06:50:52.832Z,18.77
2017-06-08T06:53:19.847Z,22.67
2017-06-08T06:55:47.599Z,22.03
2017-06-08T06:58:14.615Z,28.97
2017-06-08T07:00:41.611Z,19.93
2017-06-08T07:03:08.645Z,22.50
2017-06-08T07:05:35.632Z,19.90
2017-06-08T07:08:02.660Z,20.83
2017-06-08T07:10:29.655Z,15.63
2017-06-08T07:12:56.641Z,21.43
2017-06-08T07:15:24.423Z,23.37
2017-06-08T07:17:51.659Z,26.03
2017-06-08T07:20:19.413Z,25.77
2017-06-08T07:22:47.189Z,26.27
2017-06-08T07:25:14.203Z,21.17
2017-06-08T07:27:41.192Z,30.20
2017-06-08T07:30:08.226Z,21.60
2017-06-08T07:32:35.227Z,29.63
2017-06-08T07:35:02.262Z,19.83
2017-06-08T07:37:29.279Z,15.20
2017-06-08T07:39:56.304Z,16.57
2017-06-08T07:42:24.080Z,29.93
2017-06-08T07:44:51.071Z,18.47
2017-06-08T07:47:18.100Z,18.93
2017-06-08T07:49:45.119Z,24.20
2017-06-08T07:52:12.104Z,27.33
2017-06-08T07:54:39.115Z,18.97
2017-06-08T07:57:06.117Z,15.10
2017-06-08T07:59:33.127Z,30.73
2017-06-08T08:02:12.204Z,20.50
2017-06-08T08:04:39.239Z,18.67
2017-06-08T08:07:06.252Z,22.70
2017-06-08T08:09:33.267Z,15.10
2017-06-08T08:12:00.260Z,17.33
2017-06-08T08:14:27.655Z,25.07
2017-06-08T08:16:55.411Z,13.63
2017-06-08T08:19:23.164Z,22.70
2017-06-08T08:21:50.177Z,12.33
2017-06-08T08:24:17.159Z,20.90
2017-06-08T08:26:44.170Z,14.50
2017-06-08T08:29:11.163Z,89.77
2017-06-08T08:31:38.962Z,17.23
2017-06-08T08:34:05.964Z,24.47
2017-06-08T08:36:32.947Z,26.57
2017-06-08T08:38:59.979Z,21.47
2017-06-08T08:41:27.994Z,20.30
2017-06-08T08:43:54.975Z,19.87
2017-06-08T08:46:21.963Z,16.33
2017-06-08T08:48:48.972Z,17.57
2017-06-08T08:51:16.723Z,16.80
2017-06-08T08:53:43.736Z,30.50
2017-06-08T08:56:10.719Z,18.33
2017-06-08T08:58:37.748Z,15.03
2017-06-08T09:01:04.735Z,14.77
2017-06-08T09:03:32.496Z,14.50
2017-06-08T09:06:00.272Z,18.50
2017-06-08T09:08:27.255Z,18.73
2017-06-08T09:10:54.276Z,18.60
2017-06-08T09:13:21.260Z,18.77
2017-06-08T09:15:49.391Z,16.10
2017-06-08T09:18:16.376Z,15.83
2017-06-08T09:20:43.359Z,19.43
2017-06-08T09:23:10.378Z,17.47
2017-06-08T09:25:37.365Z,19.33
2017-06-08T09:28:04.389Z,18.13
2017-06-08T09:30:31.373Z,16.00
2017-06-08T09:32:59.119Z,14.23
2017-06-08T09:35:26.130Z,15.60
2017-06-08T09:37:53.118Z,13.00
2017-06-08T09:40:20.895Z,13.27
2017-06-08T09:42:48.656Z,17.80
2017-06-08T09:45:16.473Z,13.27
2017-06-08T09:47:43.467Z,8.07
2017-06-08T09:50:11.284Z,14.73
2017-06-08T09:52:38.279Z,19.13
2017-06-08T09:55:06.341Z,13.60
2017-06-08T09:57:33.357Z,9.57
2017-06-08T10:00:00.331Z,14.90
2017-06-08T10:02:27.344Z,15.17
2017-06-08T10:04:54.363Z,11.63
2017-06-08T10:07:21.351Z,15.70
2017-06-08T10:09:48.336Z,17.33
2017-06-08T10:12:16.112Z,16.30
2017-06-08T10:14:43.091Z,22.93
2017-06-08T10:17:10.103Z,13.47
2017-06-08T10:19:37.084Z,12.90
2017-06-08T10:22:04.100Z,17.50
2017-06-08T10:24:31.083Z,13.03
2017-06-08T10:26:58.101Z,21.63
2017-06-08T10:29:25.091Z,20.10
2017-06-08T10:31:52.211Z,13.20
2017-06-08T10:34:19.199Z,23.90
2017-06-08T10:36:47.022Z,15.85
2017-06-08T10:39:14.045Z,25.77
2017-06-08T10:41:41.032Z,12.00
2017-06-08T10:44:08.018Z,8.93
2017-06-08T10:46:35.797Z,10.80
2017-06-08T10:49:02.779Z,21.93
2017-06-08T10:51:29.807Z,9.83
2017-06-08T10:53:56.802Z,10.37
2017-06-08T10:56:23.787Z,19.13
2017-06-08T10:58:50.800Z,9.87
2017-06-08T11:01:18.559Z,10.57
2017-06-08T11:03:45.584Z,11.63
2017-06-08T11:06:12.575Z,12.80
2017-06-08T11:08:39.595Z,9.30
2017-06-08T11:11:06.584Z,13.27
2017-06-08T11:13:33.604Z,14.13
2017-06-08T11:16:01.358Z,18.90
2017-06-08T11:18:29.140Z,11.97
2017-06-08T11:20:56.130Z,15.03
2017-06-08T11:23:23.164Z,15.60
2017-06-08T11:25:50.160Z,27.20
2017-06-08T11:28:17.911Z,13.83
2017-06-08T11:30:44.932Z,14.40
2017-06-08T11:33:11.917Z,16.17
2017-06-08T11:35:39.668Z,11.37
2017-06-08T11:38:06.678Z,11.27
2017-06-08T11:40:33.680Z,21.27
2017-06-08T11:43:01.472Z,15.50
2017-06-08T11:45:28.464Z,12.50
2017-06-08T11:47:55.472Z,14.10
2017-06-08T11:50:22.467Z,13.53
2017-06-08T11:52:49.500Z,12.17
2017-06-08T11:55:16.497Z,11.97
2017-06-08T11:57:43.506Z,14.23
2017-06-08T12:00:10.492Z,12.30
2017-06-08T12:02:37.527Z,14.20
2017-06-08T12:05:04.519Z,12.47
2017-06-08T12:07:31.514Z,8.47
2017-06-08T12:09:58.523Z,15.53
2017-06-08T12:12:25.548Z,10.03
2017-06-08T12:14:52.543Z,18.53
2017-06-08T12:17:20.299Z,10.90
2017-06-08T12:19:48.076Z,16.40
2017-06-08T12:22:15.166Z,13.90
2017-06-08T12:24:42.191Z,13.93
2017-06-08T12:27:09.181Z,9.63
2017-06-08T12:29:36.172Z,14.77
2017-06-08T12:32:03.187Z,12.60
2017-06-08T12:34:30.781Z,10.60
2017-06-08T12:36:57.810Z,9.93
2017-06-08T12:39:25.564Z,8.43
2017-06-08T12:41:53.364Z,14.87
2017-06-08T12:44:20.351Z,11.40
2017-06-08T12:46:47.395Z,12.20
2017-06-08T12:49:14.422Z,11.60
2017-06-08T12:51:41.416Z,7.40
2017-06-08T12:54:09.200Z,8.93
2017-06-08T12:56:36.188Z,18.23
2017-06-08T12:59:03.205Z,10.73
2017-06-08T13:01:30.188Z,7.90
2017-06-08T13:03:57.224Z,14.00
2017-06-08T13:06:24.249Z,10.57
2017-06-08T13:08:51.252Z,8.30
2017-06-08T13:11:18.302Z,12.60
2017-06-08T13:13:45.316Z,9.33
2017-06-08T13:16:12.351Z,8.33
2017-06-08T13:18:39.387Z,7.93
2017-06-08T13:21:06.396Z,7.17
2017-06-08T13:23:34.158Z,5.90
2017-06-08T13:26:01.940Z,7.13
2017-06-08T13:28:28.927Z,7.40
2017-06-08T13:30:55.944Z,6.30
2017-06-08T13:33:22.943Z,14.17
2017-06-08T13:35:49.979Z,9.10
2017-06-08T13:38:17.007Z,8.00
2017-06-08T13:40:44.019Z,8.30
2017-06-08T13:43:11.053Z,8.17
2017-06-08T13:45:38.811Z,6.80
2017-06-08T13:48:05.840Z,7.97
2017-06-08T13:50:32.821Z,7.73
2017-06-08T13:52:59.801Z,7.00
2017-06-08T13:55:26.836Z,6.23
2017-06-08T13:57:53.816Z,6.90
2017-06-08T14:00:20.833Z,6.40
2017-06-08T14:02:47.882Z,6.40
2017-06-08T14:05:14.931Z,6.60
2017-06-08T14:07:41.957Z,6.80
2017-06-08T14:10:08.939Z,6.77
2017-06-08T14:12:36.274Z,9.20
2017-06-08T14:15:03.256Z,9.00
2017-06-08T14:17:30.245Z,9.53
2017-06-08T14:19:57.264Z,7.63
2017-06-08T14:22:25.045Z,12.90
2017-06-08T14:24:52.125Z,7.83
2017-06-08T14:27:19.152Z,7.77
2017-06-08T14:29:46.197Z,7.50
2017-06-08T14:32:13.211Z,6.10
2017-06-08T14:34:41.020Z,9.32
2017-06-08T14:37:08.037Z,15.73
2017-06-08T14:39:35.048Z,9.30
2017-06-08T14:42:02.028Z,6.97
2017-06-08T14:44:29.827Z,6.60
2017-06-08T14:46:56.811Z,5.87
2017-06-08T14:49:23.807Z,6.33
2017-06-08T14:51:50.823Z,6.87
2017-06-08T14:54:18.584Z,7.90
2017-06-08T14:56:46.372Z,6.43
2017-06-08T14:59:13.347Z,6.03
2017-06-08T15:01:40.360Z,6.50
2017-06-08T15:04:07.483Z,5.67
2017-06-08T15:06:35.302Z,5.63
2017-06-08T15:09:02.303Z,8.50
2017-06-08T15:11:30.051Z,6.40
2017-06-08T15:13:57.843Z,8.03
2017-06-08T15:16:24.827Z,6.90
2017-06-08T15:18:51.844Z,6.67
2017-06-08T15:21:18.826Z,6.47
2017-06-08T15:23:45.924Z,6.60
2017-06-08T15:26:12.933Z,6.83
2017-06-08T15:28:39.958Z,8.53
2017-06-08T15:31:06.939Z,8.97
2017-06-08T15:33:34.805Z,8.13
2017-06-08T15:36:02.610Z,7.90
2017-06-08T15:38:29.633Z,7.77
2017-06-08T15:40:57.411Z,15.27
2017-06-08T15:43:24.410Z,9.43
2017-06-08T15:45:51.463Z,10.00
2017-06-08T15:48:18.505Z,10.23
2017-06-08T15:50:45.491Z,11.03
2017-06-08T15:53:12.507Z,10.47
2017-06-08T15:55:39.726Z,10.47
2017-06-08T15:58:06.772Z,12.50
2017-06-08T16:00:33.759Z,16.93
2017-06-08T16:03:00.775Z,19.83
2017-06-08T16:05:27.764Z,17.30
2017-06-08T16:07:55.676Z,17.50
2017-06-08T16:10:22.675Z,14.50
2017-06-08T16:12:49.666Z,18.17
2017-06-08T16:15:16.699Z,22.57
2017-06-08T16:17:43.727Z,21.00
2017-06-08T16:20:10.772Z,28.47
2017-06-08T16:22:37.760Z,30.67
2017-06-08T16:25:04.786Z,29.03
2017-06-08T16:27:31.784Z,22.37
2017-06-08T16:29:58.809Z,25.03
2017-06-08T16:32:25.799Z,20.23
2017-06-08T16:34:52.831Z,18.40
2017-06-08T16:37:19.821Z,19.93
2017-06-08T16:39:46.849Z,24.27
2017-06-08T16:42:13.851Z,20.53
2017-06-08T16:44:40.893Z,20.13
2017-06-08T16:47:08.275Z,16.90
2017-06-08T16:49:36.028Z,18.23
2017-06-08T16:52:03.019Z,19.57
2017-06-08T16:54:30.027Z,18.37
2017-06-08T16:56:57.856Z,19.47
2017-06-08T16:59:24.870Z,19.23
2017-06-08T17:01:51.895Z,21.60
2017-06-08T17:04:18.892Z,22.23
2017-06-08T17:06:45.875Z,21.80
2017-06-08T17:09:13.689Z,25.80
2017-06-08T17:11:40.732Z,21.90
2017-06-08T17:14:07.724Z,19.20
2017-06-08T17:16:34.744Z,23.53
2017-06-08T17:19:01.755Z,21.13
2017-06-08T17:21:28.748Z,23.50
2017-06-08T17:23:55.763Z,24.20
2017-06-08T17:26:22.760Z,28.03
2017-06-08T17:28:49.792Z,23.63
2017-06-08T17:31:16.793Z,25.17
2017-06-08T17:33:44.289Z,41.73
2017-06-08T17:36:12.293Z,36.53
2017-06-08T17:38:39.326Z,29.17
2017-06-08T17:41:06.319Z,35.27
2017-06-08T17:43:33.368Z,28.47
2017-06-08T17:46:00.383Z,27.10
2017-06-08T17:48:28.163Z,25.03
2017-06-08T17:50:55.155Z,33.80
2017-06-08T17:53:22.171Z,28.30
2017-06-08T17:55:49.167Z,27.00
2017-06-08T17:58:16.198Z,29.27
2017-06-08T18:00:43.971Z,30.23
2017-06-08T18:03:10.956Z,29.23
2017-06-08T18:05:38.059Z,35.00
2017-06-08T18:08:05.075Z,31.87
2017-06-08T18:10:32.096Z,34.57
2017-06-08T18:12:59.095Z,28.93
2017-06-08T18:15:26.148Z,31.63
2017-06-08T18:17:53.140Z,30.03
2017-06-08T18:20:20.159Z,34.57
2017-06-08T18:22:47.921Z,30.10
2017-06-08T18:25:15.707Z,29.53
2017-06-08T18:27:42.710Z,28.10
2017-06-08T18:30:09.743Z,29.17
2017-06-08T18:32:36.736Z,28.57
2017-06-08T18:35:03.751Z,27.90
2017-06-08T18:37:30.797Z,32.67
2017-06-08T18:39:57.847Z,28.90
2017-06-08T18:42:24.840Z,30.63
2017-06-08T18:44:51.863Z,30.40
2017-06-08T18:47:19.650Z,32.37
2017-06-08T18:49:46.651Z,32.47
2017-06-08T18:52:13.676Z,33.67
2017-06-08T18:54:40.687Z,34.50
2017-06-08T18:57:07.709Z,29.57
2017-06-08T18:59:35.468Z,34.20
2017-06-08T19:02:03.260Z,38.70
2017-06-08T19:04:30.260Z,33.33
2017-06-08T19:06:57.290Z,30.60
2017-06-08T19:09:24.276Z,39.13
2017-06-08T19:11:52.070Z,33.70
2017-06-08T19:14:19.069Z,34.07
2017-06-08T19:16:46.103Z,32.70
2017-06-08T19:19:13.096Z,32.20
2017-06-08T19:21:40.084Z,30.67
2017-06-08T19:24:07.181Z,31.00
2017-06-08T19:26:34.988Z,30.40
2017-06-08T19:29:02.017Z,31.43
2017-06-08T19:31:29.012Z,29.83
2017-06-08T19:33:56.021Z,39.87
2017-06-08T19:36:23.020Z,33.77
2017-06-08T19:38:50.804Z,32.03
2017-06-08T19:41:17.855Z,33.70
2017-06-08T19:43:44.895Z,27.00
2017-06-08T19:46:11.948Z,35.90
2017-06-08T19:48:38.991Z,27.93
2017-06-08T19:51:06.012Z,32.63
2017-06-08T19:53:33.796Z,34.33
2017-06-08T19:56:00.800Z,27.90
2017-06-08T19:58:27.856Z,29.07
2017-06-08T20:00:55.844Z,26.57
2017-06-08T20:03:23.650Z,28.03
2017-06-08T20:05:50.651Z,29.53
2017-06-08T20:08:18.623Z,29.97
2017-06-08T20:10:45.651Z,32.73
2017-06-08T20:13:12.639Z,30.63
2017-06-08T20:15:39.651Z,31.07
2017-06-08T20:18:06.632Z,30.00
2017-06-08T20:20:33.671Z,38.73
2017-06-08T20:23:00.667Z,23.30
2017-06-08T20:25:27.800Z,26.70
2017-06-08T20:27:54.788Z,25.60
2017-06-08T20:30:21.841Z,29.10
2017-06-08T20:32:49.600Z,27.17
2017-06-08T20:35:16.643Z,30.33
2017-06-08T20:37:43.633Z,26.97
2017-06-08T20:40:10.628Z,30.20
2017-06-08T20:42:37.639Z,30.97
2017-06-08T20:45:04.640Z,34.33
2017-06-08T20:47:32.445Z,31.80
2017-06-08T20:49:59.432Z,35.00
2017-06-08T20:52:26.419Z,29.30
2017-06-08T20:54:53.432Z,40.50
2017-06-08T20:57:21.252Z,32.33
2017-06-08T20:59:48.280Z,35.57
2017-06-08T21:02:15.276Z,32.80
2017-06-08T21:04:42.295Z,29.07
2017-06-08T21:07:09.283Z,25.60
2017-06-08T21:09:37.039Z,28.80
2017-06-08T21:12:04.051Z,27.90
2017-06-08T21:14:31.095Z,31.10
2017-06-08T21:16:58.130Z,28.17
2017-06-08T21:19:25.120Z,29.40
2017-06-08T21:21:52.129Z,26.43
2017-06-08T21:24:19.119Z,23.93
2017-06-08T21:26:46.159Z,31.30
2017-06-08T21:29:13.171Z,25.10
2017-06-08T21:31:40.162Z,26.73
2017-06-08T21:34:07.973Z,27.17
2017-06-08T21:36:34.960Z,23.67
2017-06-08T21:39:02.323Z,27.80
2017-06-08T21:41:29.307Z,26.47
2017-06-08T21:43:56.303Z,21.77
2017-06-08T21:46:23.423Z,25.10
2017-06-08T21:48:50.407Z,23.13
2017-06-08T21:51:17.664Z,20.03
2017-06-08T21:53:44.655Z,26.87
2017-06-08T21:56:11.644Z,35.70
2017-06-08T21:58:38.675Z,20.60
2017-06-08T22:01:05.678Z,20.63
2017-06-08T22:03:32.721Z,21.83
2017-06-08T22:05:59.711Z,23.63
2017-06-08T22:08:26.743Z,26.57
2017-06-08T22:10:53.737Z,19.97
2017-06-08T22:13:21.492Z,22.43
2017-06-08T22:15:48.504Z,24.07
2017-06-08T22:18:15.495Z,18.23
2017-06-08T22:20:43.263Z,19.83
2017-06-08T22:23:11.039Z,18.93
2017-06-08T22:25:38.028Z,19.57
2017-06-08T22:28:05.035Z,20.20
2017-06-08T22:30:32.123Z,22.90
2017-06-08T22:32:59.284Z,21.00
2017-06-08T22:35:26.509Z,18.77
2017-06-08T22:37:53.500Z,15.60
2017-06-08T22:40:20.484Z,20.20
2017-06-08T22:42:47.495Z,20.50
2017-06-08T22:45:15.247Z,19.23
2017-06-08T22:47:42.257Z,17.80
2017-06-08T22:50:09.245Z,16.90
2017-06-08T22:52:36.267Z,28.47
2017-06-08T22:55:03.255Z,22.83
2017-06-08T22:57:31.488Z,19.90
2017-06-08T22:59:58.507Z,21.30
2017-06-08T23:02:25.491Z,21.43
2017-06-08T23:04:52.527Z,25.63
2017-06-08T23:07:19.515Z,26.30
2017-06-08T23:09:46.524Z,17.20
2017-06-08T23:12:13.539Z,19.23
2017-06-08T23:14:40.532Z,18.33
2017-06-08T23:17:08.334Z,20.50
2017-06-08T23:19:35.323Z,23.13
2017-06-08T23:22:02.331Z,22.83
2017-06-08T23:24:29.320Z,18.87
2017-06-08T23:26:56.355Z,24.73
2017-06-08T23:29:23.352Z,17.63
2017-06-08T23:31:50.336Z,20.23
2017-06-08T23:34:17.363Z,17.73
2017-06-08T23:36:44.383Z,16.60
2017-06-08T23:39:11.431Z,24.87
2017-06-08T23:41:38.428Z,24.70
2017-06-08T23:44:05.479Z,28.70
2017-06-08T23:46:32.515Z,18.77
2017-06-08T23:48:59.504Z,16.17
2017-06-08T23:51:27.305Z,14.30
2017-06-08T23:53:54.403Z,16.10
2017-06-08T23:56:22.152Z,19.57
2017-06-08T23:58:49.163Z,21.03
